createdAt,value
2018-06-22T00:00:11.483Z,0.90
2018-06-22T00:02:40.456Z,0.87
2018-06-22T00:05:09.448Z,1.20
2018-06-22T00:07:38.532Z,1.30
2018-06-22T00:10:07.524Z,1.00
2018-06-22T00:12:36.518Z,0.93
2018-06-22T00:15:05.551Z,1.07
2018-06-22T00:17:34.600Z,0.80
2018-06-22T00:20:03.597Z,1.30
2018-06-22T00:22:32.607Z,0.90
2018-06-22T00:25:01.643Z,1.17
2018-06-22T00:27:30.703Z,0.93
2018-06-22T00:29:59.767Z,0.80
2018-06-22T00:32:28.784Z,1.00
2018-06-22T00:34:57.785Z,1.27
2018-06-22T00:37:26.847Z,1.00
2018-06-22T00:39:55.867Z,1.10
2018-06-22T00:42:24.843Z,0.90
2018-06-22T00:44:53.829Z,0.93
2018-06-22T00:47:22.812Z,1.00
2018-06-22T00:49:51.798Z,0.97
2018-06-22T00:52:20.925Z,1.10
2018-06-22T00:54:49.916Z,1.07
2018-06-22T00:57:18.984Z,1.43
2018-06-22T00:59:47.940Z,1.10
2018-06-22T01:02:16.932Z,1.57
2018-06-22T01:04:46.001Z,1.47
2018-06-22T01:07:15.011Z,1.03
2018-06-22T01:09:44.044Z,0.83
2018-06-22T01:12:13.020Z,1.37
2018-06-22T01:14:42.046Z,1.30
2018-06-22T01:17:11.160Z,1.67
2018-06-22T01:19:40.100Z,1.20
2018-06-22T01:22:09.106Z,1.37
2018-06-22T01:24:38.112Z,0.97
2018-06-22T01:27:07.099Z,1.03
2018-06-22T01:29:36.105Z,0.97
2018-06-22T01:32:05.080Z,1.10
2018-06-22T01:34:34.069Z,0.60
2018-06-22T01:37:03.099Z,1.07
2018-06-22T01:39:32.127Z,1.00
2018-06-22T01:42:01.109Z,0.83
2018-06-22T01:44:30.165Z,0.90
2018-06-22T01:46:59.216Z,0.90
2018-06-22T01:49:28.505Z,1.30
2018-06-22T01:51:57.510Z,1.20
2018-06-22T01:54:26.487Z,0.90
2018-06-22T01:56:55.484Z,1.00
2018-06-22T01:59:24.476Z,1.10
2018-06-22T02:01:53.444Z,1.53
2018-06-22T02:04:22.428Z,0.97
2018-06-22T02:06:51.419Z,1.27
2018-06-22T02:09:20.395Z,1.03
2018-06-22T02:11:49.441Z,1.47
2018-06-22T02:14:18.426Z,0.80
2018-06-22T02:16:47.423Z,1.00
2018-06-22T02:19:16.441Z,0.90
2018-06-22T02:21:45.433Z,1.00
2018-06-22T02:24:14.513Z,1.57
2018-06-22T02:26:43.518Z,1.13
2018-06-22T02:29:12.508Z,1.10
2018-06-22T02:31:41.605Z,1.20
2018-06-22T02:34:10.611Z,1.27
2018-06-22T02:36:39.595Z,1.20
2018-06-22T02:39:10.279Z,0.73
2018-06-22T02:41:39.287Z,1.07
2018-06-22T02:44:08.331Z,1.13
2018-06-22T02:46:37.353Z,1.17
2018-06-22T02:49:06.341Z,1.10
2018-06-22T02:51:35.359Z,1.20
2018-06-22T02:54:04.390Z,0.80
2018-06-22T02:56:33.424Z,0.90
2018-06-22T02:59:02.506Z,0.93
2018-06-22T03:01:31.697Z,1.03
2018-06-22T03:04:00.918Z,1.10
2018-06-22T03:06:30.076Z,1.17
2018-06-22T03:08:59.097Z,1.00
2018-06-22T03:11:28.086Z,1.10
2018-06-22T03:13:57.083Z,1.00
2018-06-22T03:16:26.156Z,1.17
2018-06-22T03:18:55.189Z,1.10
2018-06-22T03:21:24.292Z,1.43
2018-06-22T03:23:53.275Z,1.50
2018-06-22T03:26:22.254Z,1.33
2018-06-22T03:28:51.301Z,1.40
2018-06-22T03:31:20.314Z,1.57
2018-06-22T03:33:49.267Z,1.00
2018-06-22T03:36:18.514Z,1.53
2018-06-22T03:38:47.543Z,1.33
2018-06-22T03:41:16.567Z,1.47
2018-06-22T03:43:45.668Z,1.50
2018-06-22T03:46:14.692Z,1.13
2018-06-22T03:48:43.698Z,1.03
2018-06-22T03:51:12.684Z,1.63
2018-06-22T03:53:41.734Z,1.20
2018-06-22T03:56:10.755Z,1.30
2018-06-22T03:58:39.811Z,1.20
2018-06-22T04:01:08.831Z,1.60
2018-06-22T04:03:37.835Z,1.20
2018-06-22T04:06:07.033Z,1.10
2018-06-22T04:08:35.971Z,0.80
2018-06-22T04:11:05.112Z,1.10
2018-06-22T04:13:34.083Z,0.90
2018-06-22T04:16:03.083Z,1.30
2018-06-22T04:18:32.070Z,1.47
2018-06-22T04:21:01.159Z,1.67
2018-06-22T04:23:30.188Z,1.17
2018-06-22T04:25:59.185Z,1.80
2018-06-22T04:28:28.216Z,1.13
2018-06-22T04:30:57.220Z,1.20
2018-06-22T04:33:26.205Z,1.23
2018-06-22T04:35:55.300Z,1.77
2018-06-22T04:38:24.264Z,1.53
2018-06-22T04:40:53.248Z,1.50
2018-06-22T04:43:22.276Z,2.30
2018-06-22T04:45:51.285Z,1.20
2018-06-22T04:48:20.346Z,0.80
2018-06-22T04:50:49.348Z,1.23
2018-06-22T04:53:18.323Z,1.93
2018-06-22T04:55:47.329Z,1.37
2018-06-22T04:58:16.466Z,1.03
2018-06-22T05:00:45.607Z,1.90
2018-06-22T05:03:14.588Z,0.97
2018-06-22T05:05:44.016Z,1.30
2018-06-22T05:08:13.070Z,1.27
2018-06-22T05:10:42.223Z,1.70
2018-06-22T05:13:11.297Z,2.40
2018-06-22T05:15:40.411Z,1.27
2018-06-22T05:18:09.352Z,1.40
2018-06-22T05:20:38.559Z,1.43
2018-06-22T05:23:07.997Z,1.40
2018-06-22T05:25:37.009Z,1.83
2018-06-22T05:28:05.973Z,1.53
2018-06-22T05:30:35.159Z,1.30
2018-06-22T05:33:04.189Z,1.50
2018-06-22T05:35:33.216Z,1.77
2018-06-22T05:38:02.233Z,1.07
2018-06-22T05:40:31.207Z,1.40
2018-06-22T05:43:00.268Z,0.93
2018-06-22T05:45:29.440Z,1.27
2018-06-22T05:47:58.555Z,1.33
2018-06-22T05:50:27.566Z,1.50
2018-06-22T05:52:56.605Z,1.37
2018-06-22T05:55:25.560Z,1.37
2018-06-22T05:57:54.602Z,0.90
2018-06-22T06:00:23.610Z,1.10
2018-06-22T06:02:52.599Z,1.33
2018-06-22T06:05:21.607Z,1.60
2018-06-22T06:07:50.610Z,1.47
2018-06-22T06:10:19.586Z,1.70
2018-06-22T06:12:48.954Z,1.40
2018-06-22T06:15:17.918Z,1.20
2018-06-22T06:17:46.884Z,2.27
2018-06-22T06:20:15.906Z,1.10
2018-06-22T06:22:44.905Z,1.13
2018-06-22T06:25:14.083Z,1.20
2018-06-22T06:27:43.132Z,1.50
2018-06-22T06:30:12.243Z,1.80
2018-06-22T06:32:41.305Z,1.30
2018-06-22T06:35:10.335Z,1.60
2018-06-22T06:37:39.326Z,1.30
2018-06-22T06:40:08.486Z,1.70
2018-06-22T06:42:37.452Z,1.63
2018-06-22T06:45:06.443Z,1.30
2018-06-22T06:47:35.383Z,1.60
2018-06-22T06:50:04.423Z,0.90
2018-06-22T06:52:33.418Z,1.63
2018-06-22T06:55:02.917Z,2.53
2018-06-22T06:57:31.917Z,1.63
2018-06-22T07:00:00.947Z,1.50
2018-06-22T07:02:29.950Z,1.67
2018-06-22T07:04:58.968Z,0.93
2018-06-22T07:07:28.014Z,1.77
2018-06-22T07:09:56.989Z,1.50
2018-06-22T07:12:26.031Z,1.43
2018-06-22T07:14:54.989Z,1.13
2018-06-22T07:17:24.228Z,1.40
2018-06-22T07:19:53.208Z,1.23
2018-06-22T07:22:22.225Z,1.47
2018-06-22T07:24:51.297Z,1.07
2018-06-22T07:27:20.337Z,1.23
2018-06-22T07:29:49.309Z,1.30
2018-06-22T07:32:18.580Z,2.03
2018-06-22T07:34:47.588Z,1.57
2018-06-22T07:37:16.637Z,1.20
2018-06-22T07:39:45.675Z,1.17
2018-06-22T07:42:14.681Z,1.63
2018-06-22T07:44:43.729Z,1.83
2018-06-22T07:47:12.968Z,1.10
2018-06-22T07:49:42.113Z,0.97
2018-06-22T07:52:11.054Z,1.40
2018-06-22T07:54:40.034Z,1.23
2018-06-22T07:57:09.082Z,1.27
2018-06-22T07:59:38.063Z,1.00
2018-06-22T08:02:07.046Z,1.37
2018-06-22T08:04:36.102Z,1.73
2018-06-22T08:07:05.137Z,1.93
2018-06-22T08:09:34.119Z,1.83
2018-06-22T08:12:03.088Z,1.70
2018-06-22T08:14:32.080Z,1.47
2018-06-22T08:17:01.079Z,1.30
2018-06-22T08:19:30.437Z,1.50
2018-06-22T08:21:59.441Z,1.23
2018-06-22T08:24:28.431Z,1.47
2018-06-22T08:26:57.452Z,1.53
2018-06-22T08:29:26.448Z,1.13
2018-06-22T08:31:55.424Z,1.10
2018-06-22T08:34:24.422Z,1.20
2018-06-22T08:36:53.396Z,1.37
2018-06-22T08:39:22.438Z,1.33
2018-06-22T08:41:51.555Z,1.50
2018-06-22T08:44:20.440Z,1.60
2018-06-22T08:46:49.392Z,1.30
2018-06-22T08:49:18.438Z,0.97
2018-06-22T08:51:47.400Z,1.13
2018-06-22T08:54:16.399Z,1.50
2018-06-22T08:56:45.400Z,1.43
2018-06-22T08:59:14.453Z,1.30
2018-06-22T09:01:43.505Z,1.50
2018-06-22T09:04:12.498Z,1.30
2018-06-22T09:06:41.484Z,1.40
2018-06-22T09:09:10.495Z,2.30
2018-06-22T09:11:39.470Z,1.20
2018-06-22T09:14:08.468Z,1.13
2018-06-22T09:16:37.771Z,1.40
2018-06-22T09:19:06.850Z,2.07
2018-06-22T09:21:39.367Z,1.20
2018-06-22T09:24:08.371Z,1.90
2018-06-22T09:26:37.349Z,1.73
2018-06-22T09:29:06.363Z,1.43
2018-06-22T09:31:35.529Z,1.67
2018-06-22T09:34:04.579Z,2.00
2018-06-22T09:36:33.583Z,1.50
2018-06-22T09:39:02.604Z,1.40
2018-06-22T09:41:31.614Z,1.23
2018-06-22T09:44:00.609Z,1.80
2018-06-22T09:46:29.683Z,1.40
2018-06-22T09:48:58.699Z,1.50
2018-06-22T09:51:27.684Z,1.17
2018-06-22T09:53:56.691Z,1.57
2018-06-22T09:56:25.682Z,1.43
2018-06-22T09:58:54.644Z,1.20
2018-06-22T10:01:23.623Z,1.37
2018-06-22T10:03:52.619Z,0.97
2018-06-22T10:06:21.652Z,0.87
2018-06-22T10:08:50.654Z,1.13
2018-06-22T10:11:19.705Z,1.30
2018-06-22T10:13:48.667Z,1.20
2018-06-22T10:16:17.675Z,2.83
2018-06-22T10:18:46.717Z,1.47
2018-06-22T10:21:15.865Z,2.27
2018-06-22T10:23:44.970Z,1.77
2018-06-22T10:26:14.072Z,1.50
2018-06-22T10:28:43.089Z,1.73
2018-06-22T10:31:12.111Z,1.20
2018-06-22T10:33:41.116Z,1.27
2018-06-22T10:36:10.143Z,1.40
2018-06-22T10:38:39.146Z,1.10
2018-06-22T10:41:08.245Z,1.20
2018-06-22T10:43:37.231Z,1.23
2018-06-22T10:46:06.255Z,1.47
2018-06-22T10:48:35.237Z,2.03
2018-06-22T10:51:04.863Z,1.40
2018-06-22T10:53:33.905Z,1.40
2018-06-22T10:56:02.971Z,0.90
2018-06-22T10:58:32.014Z,1.17
2018-06-22T11:01:01.052Z,1.30
2018-06-22T11:03:30.176Z,1.30
2018-06-22T11:05:59.130Z,1.33
2018-06-22T11:08:28.135Z,1.83
2018-06-22T11:10:57.167Z,1.90
2018-06-22T11:13:26.223Z,1.00
2018-06-22T11:15:55.258Z,1.33
2018-06-22T11:18:24.282Z,1.03
2018-06-22T11:20:53.231Z,0.90
2018-06-22T11:23:22.229Z,0.60
2018-06-22T11:25:51.389Z,0.87
2018-06-22T11:28:20.808Z,1.20
2018-06-22T11:30:49.953Z,1.17
2018-06-22T11:33:19.314Z,1.40
2018-06-22T11:35:48.370Z,1.33
2018-06-22T11:38:17.410Z,1.33
2018-06-22T11:40:46.455Z,1.23
2018-06-22T11:43:15.529Z,1.30
2018-06-22T11:45:44.554Z,0.87
2018-06-22T11:48:13.576Z,1.53
2018-06-22T11:50:42.637Z,0.53
2018-06-22T11:53:11.645Z,0.67
2018-06-22T11:55:40.920Z,0.90
2018-06-22T11:58:10.002Z,0.90
2018-06-22T12:00:39.105Z,0.90
2018-06-22T12:03:08.192Z,0.90
2018-06-22T12:05:37.187Z,0.87
2018-06-22T12:08:06.181Z,0.80
2018-06-22T12:10:35.233Z,0.90
2018-06-22T12:13:04.272Z,0.90
2018-06-22T12:15:33.232Z,0.87
2018-06-22T12:18:02.332Z,1.17
2018-06-22T12:20:31.358Z,0.93
2018-06-22T12:23:00.433Z,1.10
2018-06-22T12:25:29.561Z,1.23
2018-06-22T12:27:58.700Z,1.13
2018-06-22T12:30:27.745Z,1.37
2018-06-22T12:32:56.713Z,1.00
2018-06-22T12:35:25.715Z,1.30
2018-06-22T12:37:54.695Z,1.33
2018-06-22T12:40:23.706Z,1.67
2018-06-22T12:42:52.731Z,1.57
2018-06-22T12:45:21.805Z,1.37
2018-06-22T12:47:50.787Z,2.53
2018-06-22T12:50:20.437Z,1.50
2018-06-22T12:52:49.462Z,1.70
2018-06-22T12:55:18.476Z,1.50
2018-06-22T12:57:47.466Z,1.27
2018-06-22T13:00:16.448Z,1.50
2018-06-22T13:02:45.518Z,2.73
2018-06-22T13:05:14.533Z,1.67
2018-06-22T13:07:43.596Z,1.53
2018-06-22T13:10:12.606Z,1.33
2018-06-22T13:12:41.607Z,1.63
2018-06-22T13:15:10.574Z,1.40
2018-06-22T13:17:39.884Z,1.00
2018-06-22T13:20:08.917Z,1.10
2018-06-22T13:22:38.062Z,1.40
2018-06-22T13:25:07.066Z,0.93
2018-06-22T13:27:36.078Z,1.27
2018-06-22T13:30:05.095Z,0.70
2018-06-22T13:32:34.082Z,1.00
2018-06-22T13:35:03.066Z,0.90
2018-06-22T13:37:32.051Z,1.00
2018-06-22T13:40:01.073Z,0.93
2018-06-22T13:42:30.113Z,1.10
2018-06-22T13:44:59.165Z,1.00
2018-06-22T13:47:28.302Z,1.20
2018-06-22T13:49:57.295Z,1.37
2018-06-22T13:52:26.273Z,1.20
2018-06-22T13:54:55.251Z,1.27
2018-06-22T13:57:24.236Z,1.37
2018-06-22T13:59:53.257Z,1.20
2018-06-22T14:02:22.339Z,1.23
2018-06-22T14:04:56.651Z,1.27
2018-06-22T14:07:25.659Z,1.53
2018-06-22T14:09:54.644Z,1.27
2018-06-22T14:12:23.607Z,1.27
2018-06-22T14:14:52.617Z,1.00
2018-06-22T14:17:21.587Z,1.10
2018-06-22T14:19:50.559Z,1.00
2018-06-22T14:22:19.520Z,0.90
2018-06-22T14:24:48.519Z,1.00
2018-06-22T14:27:17.655Z,1.00
2018-06-22T14:29:46.717Z,1.20
2018-06-22T14:32:16.270Z,1.00
2018-06-22T14:34:45.636Z,1.40
2018-06-22T14:37:14.946Z,2.57
2018-06-22T14:39:44.142Z,0.83
2018-06-22T14:42:13.168Z,1.00
2018-06-22T14:44:42.514Z,0.80
2018-06-22T14:47:11.529Z,1.00
2018-06-22T14:49:40.540Z,0.70
2018-06-22T14:52:09.547Z,0.73
2018-06-22T14:54:43.996Z,0.80
2018-06-22T14:57:18.454Z,0.90
2018-06-22T14:59:52.955Z,0.97
2018-06-22T15:02:27.473Z,1.00
2018-06-22T15:05:01.870Z,1.30
2018-06-22T15:07:36.296Z,0.93
2018-06-22T15:10:05.283Z,1.10
2018-06-22T15:12:34.298Z,1.10
2018-06-22T15:15:03.393Z,1.47
2018-06-22T15:17:36.540Z,1.30
2018-06-22T15:20:05.632Z,1.10
2018-06-22T15:22:34.604Z,1.43
2018-06-22T15:25:03.773Z,0.90
2018-06-22T15:27:32.828Z,0.80
2018-06-22T15:30:01.863Z,0.77
2018-06-22T15:32:30.881Z,1.00
2018-06-22T15:35:05.143Z,1.10
2018-06-22T15:37:39.701Z,0.93
2018-06-22T15:40:14.064Z,1.10
2018-06-22T15:42:48.511Z,1.00
2018-06-22T15:45:22.917Z,0.77
2018-06-22T15:47:57.240Z,0.90
2018-06-22T15:50:31.610Z,1.30
2018-06-22T15:53:05.948Z,1.00
2018-06-22T15:55:41.987Z,1.07
2018-06-22T15:58:11.014Z,1.27
2018-06-22T16:00:40.016Z,1.20
2018-06-22T16:03:14.597Z,1.13
2018-06-22T16:05:42.672Z,1.23
2018-06-22T16:08:11.591Z,1.40
2018-06-22T16:10:40.637Z,1.27
2018-06-22T16:13:15.019Z,1.60
2018-06-22T16:15:49.428Z,1.30
2018-06-22T16:18:24.308Z,1.80
2018-06-22T16:20:58.700Z,1.60
2018-06-22T16:23:33.058Z,1.40
2018-06-22T16:26:07.509Z,0.97
2018-06-22T16:28:36.576Z,1.20
2018-06-22T16:31:05.701Z,1.73
2018-06-22T16:33:34.826Z,1.17
2018-06-22T16:36:03.904Z,0.97
2018-06-22T16:38:32.970Z,0.73
2018-06-22T16:41:02.057Z,1.33
2018-06-22T16:43:31.130Z,0.90
2018-06-22T16:46:00.093Z,0.87
2018-06-22T16:48:29.087Z,1.10
2018-06-22T16:50:58.121Z,1.10
2018-06-22T16:53:27.147Z,1.97
2018-06-22T16:55:56.106Z,0.90
2018-06-22T16:58:30.517Z,0.97
2018-06-22T17:00:59.751Z,1.00
2018-06-22T17:03:28.719Z,0.80
2018-06-22T17:05:57.727Z,1.00
2018-06-22T17:08:32.068Z,1.00
2018-06-22T17:11:06.513Z,1.53
2018-06-22T17:13:41.096Z,1.57
2018-06-22T17:16:15.329Z,1.23
2018-06-22T17:18:49.817Z,1.10
2018-06-22T17:21:19.326Z,1.60
2018-06-22T17:23:48.331Z,1.63
2018-06-22T17:26:17.334Z,1.83
2018-06-22T17:28:46.596Z,1.77
2018-06-22T17:31:15.595Z,1.17
2018-06-22T17:33:44.693Z,1.40
2018-06-22T17:36:13.728Z,1.60
2018-06-22T17:38:42.715Z,2.13
2018-06-22T17:41:11.738Z,1.60
2018-06-22T17:43:40.749Z,2.30
2018-06-22T17:46:09.862Z,2.37
2018-06-22T17:48:39.186Z,2.33
2018-06-22T17:51:08.273Z,2.00
2018-06-22T17:53:37.262Z,2.20
2018-06-22T17:56:06.258Z,2.07
2018-06-22T17:58:35.239Z,1.83
2018-06-22T18:01:09.602Z,1.60
2018-06-22T18:03:43.986Z,1.70
2018-06-22T18:06:18.340Z,1.97
2018-06-22T18:08:48.057Z,1.97
2018-06-22T18:11:22.731Z,1.27
2018-06-22T18:13:51.670Z,1.60
2018-06-22T18:16:20.661Z,1.20
2018-06-22T18:18:49.647Z,1.70
2018-06-22T18:21:18.656Z,2.57
2018-06-22T18:23:47.703Z,2.00
2018-06-22T18:26:16.692Z,2.23
2018-06-22T18:28:45.738Z,2.80
2018-06-22T18:31:14.883Z,1.97
2018-06-22T18:33:44.076Z,2.10
2018-06-22T18:36:13.101Z,2.33
2018-06-22T18:38:42.564Z,2.20
2018-06-22T18:41:11.619Z,2.20
2018-06-22T18:43:45.991Z,2.40
2018-06-22T18:46:15.058Z,2.43
2018-06-22T18:48:44.311Z,2.57
2018-06-22T18:51:13.335Z,3.33
2018-06-22T18:53:47.820Z,2.33
2018-06-22T18:56:22.226Z,2.23
2018-06-22T18:58:56.718Z,2.43
2018-06-22T19:01:31.220Z,2.30
2018-06-22T19:04:00.237Z,2.17
2018-06-22T19:06:29.250Z,2.23
2018-06-22T19:08:58.256Z,1.97
2018-06-22T19:11:27.403Z,1.63
2018-06-22T19:13:56.414Z,2.20
2018-06-22T19:16:25.687Z,2.20
2018-06-22T19:18:54.756Z,2.10
2018-06-22T19:21:23.735Z,2.23
2018-06-22T19:23:52.821Z,2.00
2018-06-22T19:26:22.284Z,2.07
2018-06-22T19:28:51.319Z,2.83
2018-06-22T19:31:20.377Z,2.60
2018-06-22T19:33:49.712Z,2.80
2018-06-22T19:36:18.716Z,2.40
2018-06-22T19:38:47.747Z,3.50
2018-06-22T19:41:16.807Z,2.37
2018-06-22T19:43:51.188Z,2.40
2018-06-22T19:46:25.530Z,2.50
2018-06-22T19:50:00.860Z,2.80
2018-06-22T19:52:35.350Z,2.67
2018-06-22T19:55:04.687Z,2.93
2018-06-22T19:57:33.755Z,2.77
2018-06-22T20:00:02.847Z,3.30
2018-06-22T20:02:31.952Z,3.43
2018-06-22T20:05:00.940Z,4.80
2018-06-22T20:07:30.005Z,5.63
2018-06-22T20:09:59.011Z,4.97
2018-06-22T20:12:28.018Z,6.20
2018-06-22T20:14:57.871Z,5.77
2018-06-22T20:17:27.179Z,5.63
2018-06-22T20:19:56.226Z,4.60
2018-06-22T20:22:25.635Z,4.50
2018-06-22T20:25:00.048Z,3.27
2018-06-22T20:27:29.014Z,3.03
2018-06-22T20:29:58.184Z,3.63
2018-06-22T20:32:27.153Z,3.10
2018-06-22T20:35:01.639Z,3.13
2018-06-22T20:37:36.004Z,3.30
2018-06-22T20:40:10.443Z,2.83
2018-06-22T20:43:44.267Z,2.67
2018-06-22T20:46:13.403Z,2.60
2018-06-22T20:48:47.847Z,2.80
2018-06-22T20:51:17.749Z,2.80
2018-06-22T20:53:46.729Z,2.93
2018-06-22T20:56:15.824Z,3.00
2018-06-22T20:58:44.776Z,2.63
2018-06-22T21:01:13.805Z,2.70
2018-06-22T21:03:42.762Z,3.23
2018-06-22T21:06:11.759Z,2.67
2018-06-22T21:08:40.737Z,2.60
2018-06-22T21:11:09.744Z,3.37
2018-06-22T21:13:38.764Z,3.20
2018-06-22T21:16:08.000Z,2.57
2018-06-22T21:18:37.018Z,3.37
2018-06-22T21:21:11.507Z,2.77
2018-06-22T21:23:40.570Z,3.30
2018-06-22T21:26:09.549Z,3.37
2018-06-22T21:28:44.066Z,3.37
2018-06-22T21:31:18.520Z,3.37
2018-06-22T21:33:53.146Z,3.90
2018-06-22T21:36:27.550Z,3.43
2018-06-22T21:39:01.323Z,3.00
2018-06-22T21:41:30.310Z,3.57
2018-06-22T21:43:59.498Z,3.90
2018-06-22T21:46:28.512Z,2.77
2018-06-22T21:48:57.639Z,3.77
2018-06-22T21:51:26.633Z,3.20
2018-06-22T21:53:55.741Z,4.00
2018-06-22T21:56:25.057Z,2.90
2018-06-22T21:58:54.135Z,4.43
2018-06-22T22:01:23.221Z,3.30
2018-06-22T22:03:52.435Z,3.57
2018-06-22T22:06:21.464Z,3.23
2018-06-22T22:08:50.590Z,3.67
2018-06-22T22:11:20.541Z,3.57
2018-06-22T22:13:49.539Z,3.27
2018-06-22T22:16:18.728Z,2.73
2018-06-22T22:18:47.797Z,4.47
2018-06-22T22:21:16.843Z,3.50
2018-06-22T22:23:45.841Z,3.40
2018-06-22T22:26:14.858Z,3.37
2018-06-22T22:28:43.877Z,3.47
2018-06-22T22:31:12.956Z,4.47
2018-06-22T22:33:41.915Z,3.87
2018-06-22T22:36:10.900Z,3.40
2018-06-22T22:38:39.940Z,3.37
2018-06-22T22:41:08.975Z,3.37
2018-06-22T22:43:38.028Z,4.30
2018-06-22T22:46:07.011Z,4.07
2018-06-22T22:48:35.966Z,4.07
2018-06-22T22:51:04.982Z,3.33
2018-06-22T22:53:33.983Z,3.83
2018-06-22T22:56:02.986Z,4.00
2018-06-22T22:58:31.991Z,3.90
2018-06-22T23:01:00.969Z,3.47
2018-06-22T23:03:29.956Z,3.57
2018-06-22T23:06:18.886Z,3.93
2018-06-22T23:08:49.790Z,4.07
2018-06-22T23:11:18.903Z,3.40
2018-06-22T23:13:47.869Z,4.37
2018-06-22T23:16:16.906Z,3.63
2018-06-22T23:18:46.021Z,3.50
2018-06-22T23:21:15.021Z,3.93
2018-06-22T23:23:44.000Z,3.67
2018-06-22T23:26:12.972Z,4.43
2018-06-22T23:28:41.941Z,3.13
2018-06-22T23:31:10.907Z,3.90
2018-06-22T23:33:39.905Z,4.37
2018-06-22T23:36:08.924Z,3.80
2018-06-22T23:38:37.922Z,4.37
2018-06-22T23:41:06.904Z,3.60
2018-06-22T23:43:35.895Z,3.70
2018-06-22T23:46:06.019Z,3.80
2018-06-22T23:48:34.955Z,5.43
2018-06-22T23:51:03.964Z,4.10
2018-06-22T23:53:32.931Z,3.93
2018-06-22T23:56:01.913Z,3.67
2018-06-22T23:58:30.949Z,4.67
